sensor_id;sensor_type;location;lat;lon;timestamp;temperature;humidity
16655;DHT22;8441;51.344;7.022;2023-07-29T02:40:22;18.30;99.90
16655;DHT22;8441;51.344;7.022;2023-07-29T02:43:20;18.30;99.90
16655;DHT22;8441;51.344;7.022;2023-07-29T02:46:24;18.40;99.90
16655;DHT22;8441;51.344;7.022;2023-07-29T02:48:51;18.40;99.90
16655;DHT22;8441;51.344;7.022;2023-07-29T02:51:18;18.40;99.90
16655;DHT22;8441;51.344;7.022;2023-07-29T02:53:45;18.50;99.90
16655;DHT22;8441;51.344;7.022;2023-07-29T02:56:14;18.40;99.90
16655;DHT22;8441;51.344;7.022;2023-07-29T02:58:41;18.40;99.90
16655;DHT22;8441;51.344;7.022;2023-07-29T03:01:08;18.40;99.90
16655;DHT22;8441;51.344;7.022;2023-07-29T03:03:35;18.40;99.90
16655;DHT22;8441;51.344;7.022;2023-07-29T03:06:04;18.40;99.90
16655;DHT22;8441;51.344;7.022;2023-07-29T03:08:31;18.40;99.90
16655;DHT22;8441;51.344;7.022;2023-07-29T03:11:04;18.40;99.90
16655;DHT22;8441;51.344;7.022;2023-07-29T03:13:33;18.40;99.90
16655;DHT22;8441;51.344;7.022;2023-07-29T03:19:22;18.40;99.90
16655;DHT22;8441;51.344;7.022;2023-07-29T03:21:49;18.40;99.90
16655;DHT22;8441;51.344;7.022;2023-07-29T03:24:16;18.40;99.90
16655;DHT22;8441;51.344;7.022;2023-07-29T03:26:43;18.40;99.90
16655;DHT22;8441;51.344;7.022;2023-07-29T03:29:12;18.40;99.90
16655;DHT22;8441;51.344;7.022;2023-07-29T03:31:39;18.40;99.90
16655;DHT22;8441;51.344;7.022;2023-07-29T03:34:07;18.40;99.90
16655;DHT22;8441;51.344;7.022;2023-07-29T03:36:35;18.40;99.90
16655;DHT22;8441;51.344;7.022;2023-07-29T03:39:03;18.40;99.90
16655;DHT22;8441;51.344;7.022;2023-07-29T03:41:30;18.40;99.90
16655;DHT22;8441;51.344;7.022;2023-07-29T03:43:57;18.40;99.90
16655;DHT22;8441;51.344;7.022;2023-07-29T03:46:26;18.40;99.90
16655;DHT22;8441;51.344;7.022;2023-07-29T03:48:53;18.40;99.90
16655;DHT22;8441;51.344;7.022;2023-07-29T03:51:20;18.40;99.90
16655;DHT22;8441;51.344;7.022;2023-07-29T03:53:48;18.40;99.90
16655;DHT22;8441;51.344;7.022;2023-07-29T03:56:15;18.40;99.90
16655;DHT22;8441;51.344;7.022;2023-07-29T03:58:43;18.40;99.90
16655;DHT22;8441;51.344;7.022;2023-07-29T04:01:10;18.30;99.90
16655;DHT22;8441;51.344;7.022;2023-07-29T04:03:39;18.30;99.90
16655;DHT22;8441;51.344;7.022;2023-07-29T04:06:06;18.30;99.90
16655;DHT22;8441;51.344;7.022;2023-07-29T04:08:33;18.20;99.90
16655;DHT22;8441;51.344;7.022;2023-07-29T04:11:18;18.30;99.90
16655;DHT22;8441;51.344;7.022;2023-07-29T04:13:46;18.20;99.90
16655;DHT22;8441;51.344;7.022;2023-07-29T04:16:13;18.20;99.90
16655;DHT22;8441;51.344;7.022;2023-07-29T04:18:41;18.20;99.90
16655;DHT22;8441;51.344;7.022;2023-07-29T04:21:09;18.20;99.90
16655;DHT22;8441;51.344;7.022;2023-07-29T04:23:36;18.20;99.90
16655;DHT22;8441;51.344;7.022;2023-07-29T04:26:04;18.30;99.90
16655;DHT22;8441;51.344;7.022;2023-07-29T04:31:53;18.30;99.90
16655;DHT22;8441;51.344;7.022;2023-07-29T04:34:21;18.30;99.90
16655;DHT22;8441;51.344;7.022;2023-07-29T04:36:49;18.30;99.90
16655;DHT22;8441;51.344;7.022;2023-07-29T04:39:16;18.20;99.90
16655;DHT22;8441;51.344;7.022;2023-07-29T04:41:44;18.20;99.90
16655;DHT22;8441;51.344;7.022;2023-07-29T04:44:11;18.20;99.90
16655;DHT22;8441;51.344;7.022;2023-07-29T04:46:38;18.20;99.90
16655;DHT22;8441;51.344;7.022;2023-07-29T04:49:05;18.10;99.90
16655;DHT22;8441;51.344;7.022;2023-07-29T04:51:34;18.10;99.90
16655;DHT22;8441;51.344;7.022;2023-07-29T04:54:03;18.10;99.90
16655;DHT22;8441;51.344;7.022;2023-07-29T04:56:30;18.10;99.90
16655;DHT22;8441;51.344;7.022;2023-07-29T04:58:57;18.00;99.90
16655;DHT22;8441;51.344;7.022;2023-07-29T05:01:24;18.00;99.90
16655;DHT22;8441;51.344;7.022;2023-07-29T05:03:51;18.00;99.90
16655;DHT22;8441;51.344;7.022;2023-07-29T05:06:19;18.00;99.90
16655;DHT22;8441;51.344;7.022;2023-07-29T05:09:18;18.00;99.90
16655;DHT22;8441;51.344;7.022;2023-07-29T05:11:46;18.00;99.90
16655;DHT22;8441;51.344;7.022;2023-07-29T05:14:15;18.00;99.90
16655;DHT22;8441;51.344;7.022;2023-07-29T05:16:43;18.10;99.90
16655;DHT22;8441;51.344;7.022;2023-07-29T05:19:10;18.20;99.90
16655;DHT22;8441;51.344;7.022;2023-07-29T05:21:38;18.30;99.90
16655;DHT22;8441;51.344;7.022;2023-07-29T05:24:05;18.30;99.90
16655;DHT22;8441;51.344;7.022;2023-07-29T05:26:33;18.40;99.90
16655;DHT22;8441;51.344;7.022;2023-07-29T05:32:22;18.50;99.90
16655;DHT22;8441;51.344;7.022;2023-07-29T05:34:49;18.50;99.90
16655;DHT22;8441;51.344;7.022;2023-07-29T05:37:17;18.40;99.90
16655;DHT22;8441;51.344;7.022;2023-07-29T05:39:44;18.40;99.90
16655;DHT22;8441;51.344;7.022;2023-07-29T05:42:12;18.40;99.90
16655;DHT22;8441;51.344;7.022;2023-07-29T05:44:39;18.50;99.90
16655;DHT22;8441;51.344;7.022;2023-07-29T05:47:06;18.50;99.90
16655;DHT22;8441;51.344;7.022;2023-07-29T05:49:33;18.50;99.90
16655;DHT22;8441;51.344;7.022;2023-07-29T05:52:01;18.50;99.90
16655;DHT22;8441;51.344;7.022;2023-07-29T05:54:28;18.30;99.90
16655;DHT22;8441;51.344;7.022;2023-07-29T05:56:55;18.30;99.90
16655;DHT22;8441;51.344;7.022;2023-07-29T05:59:24;18.20;99.90
16655;DHT22;8441;51.344;7.022;2023-07-29T06:01:56;18.30;99.90
16655;DHT22;8441;51.344;7.022;2023-07-29T06:04:23;18.20;99.90
16655;DHT22;8441;51.344;7.022;2023-07-29T06:06:50;18.20;99.90
16655;DHT22;8441;51.344;7.022;2023-07-29T06:09:17;18.20;99.90
16655;DHT22;8441;51.344;7.022;2023-07-29T06:11:45;18.10;99.90
16655;DHT22;8441;51.344;7.022;2023-07-29T06:14:12;18.10;99.90
16655;DHT22;8441;51.344;7.022;2023-07-29T06:16:39;18.20;99.90
16655;DHT22;8441;51.344;7.022;2023-07-29T06:19:06;18.20;99.90
16655;DHT22;8441;51.344;7.022;2023-07-29T06:21:34;18.30;99.90
16655;DHT22;8441;51.344;7.022;2023-07-29T06:24:01;18.30;99.90
16655;DHT22;8441;51.344;7.022;2023-07-29T06:26:29;18.40;99.90
16655;DHT22;8441;51.344;7.022;2023-07-29T06:28:56;18.50;99.90
16655;DHT22;8441;51.344;7.022;2023-07-29T06:31:23;18.40;99.90
16655;DHT22;8441;51.344;7.022;2023-07-29T06:33:52;18.30;99.90
16655;DHT22;8441;51.344;7.022;2023-07-29T06:36:20;18.30;99.90
16655;DHT22;8441;51.344;7.022;2023-07-29T06:38:47;18.20;99.90
16655;DHT22;8441;51.344;7.022;2023-07-29T06:41:14;18.30;99.90
16655;DHT22;8441;51.344;7.022;2023-07-29T06:43:42;18.40;99.90
16655;DHT22;8441;51.344;7.022;2023-07-29T06:46:09;18.40;99.90
16655;DHT22;8441;51.344;7.022;2023-07-29T06:48:36;18.50;99.90
16655;DHT22;8441;51.344;7.022;2023-07-29T06:51:05;18.40;99.90
16655;DHT22;8441;51.344;7.022;2023-07-29T06:53:32;18.40;99.90
16655;DHT22;8441;51.344;7.022;2023-07-29T06:55:59;18.50;99.90
16655;DHT22;8441;51.344;7.022;2023-07-29T06:58:27;18.50;99.90
16655;DHT22;8441;51.344;7.022;2023-07-29T07:00:54;18.40;99.90
16655;DHT22;8441;51.344;7.022;2023-07-29T07:03:21;18.40;99.90
16655;DHT22;8441;51.344;7.022;2023-07-29T07:05:48;18.40;99.90
16655;DHT22;8441;51.344;7.022;2023-07-29T07:08:17;18.50;99.90
16655;DHT22;8441;51.344;7.022;2023-07-29T07:10:44;18.50;99.90
16655;DHT22;8441;51.344;7.022;2023-07-29T07:13:11;18.50;99.90
16655;DHT22;8441;51.344;7.022;2023-07-29T07:15:38;18.50;99.90
16655;DHT22;8441;51.344;7.022;2023-07-29T07:18:05;18.50;99.90
16655;DHT22;8441;51.344;7.022;2023-07-29T07:20:33;18.50;99.90
16655;DHT22;8441;51.344;7.022;2023-07-29T07:23:01;18.60;99.90
16655;DHT22;8441;51.344;7.022;2023-07-29T07:25:30;18.80;99.90
16655;DHT22;8441;51.344;7.022;2023-07-29T07:27:57;18.90;99.90
16655;DHT22;8441;51.344;7.022;2023-07-29T07:30:24;19.10;99.90
16655;DHT22;8441;51.344;7.022;2023-07-29T07:32:51;19.00;99.90
16655;DHT22;8441;51.344;7.022;2023-07-29T07:35:18;19.10;99.90
16655;DHT22;8441;51.344;7.022;2023-07-29T07:37:45;19.20;99.90
16655;DHT22;8441;51.344;7.022;2023-07-29T07:40:13;19.30;99.90
16655;DHT22;8441;51.344;7.022;2023-07-29T07:42:42;19.20;99.90
16655;DHT22;8441;51.344;7.022;2023-07-29T07:45:09;19.20;99.90
16655;DHT22;8441;51.344;7.022;2023-07-29T07:47:36;19.30;99.90
16655;DHT22;8441;51.344;7.022;2023-07-29T07:50:04;19.40;99.90
16655;DHT22;8441;51.344;7.022;2023-07-29T07:52:31;19.60;99.90
16655;DHT22;8441;51.344;7.022;2023-07-29T07:54:58;19.90;99.90
16655;DHT22;8441;51.344;7.022;2023-07-29T07:57:25;20.10;99.90
16655;DHT22;8441;51.344;7.022;2023-07-29T07:59:54;20.20;99.90
16655;DHT22;8441;51.344;7.022;2023-07-29T08:02:21;20.20;99.90
16655;DHT22;8441;51.344;7.022;2023-07-29T08:04:49;20.10;99.90
16655;DHT22;8441;51.344;7.022;2023-07-29T08:07:16;20.00;99.90
16655;DHT22;8441;51.344;7.022;2023-07-29T08:09:43;20.00;99.90
16655;DHT22;8441;51.344;7.022;2023-07-29T08:12:11;19.90;99.90
16655;DHT22;8441;51.344;7.022;2023-07-29T08:14:38;19.90;99.90
16655;DHT22;8441;51.344;7.022;2023-07-29T08:17:07;20.00;99.90
16655;DHT22;8441;51.344;7.022;2023-07-29T08:19:34;20.20;99.90
16655;DHT22;8441;51.344;7.022;2023-07-29T08:22:02;20.70;99.90
16655;DHT22;8441;51.344;7.022;2023-07-29T08:24:29;20.80;99.90
16655;DHT22;8441;51.344;7.022;2023-07-29T08:26:57;20.80;99.90
16655;DHT22;8441;51.344;7.022;2023-07-29T08:29:24;20.90;99.90
16655;DHT22;8441;51.344;7.022;2023-07-29T08:31:51;20.80;99.90
16655;DHT22;8441;51.344;7.022;2023-07-29T08:34:19;20.90;99.90
16655;DHT22;8441;51.344;7.022;2023-07-29T08:36:47;20.90;99.90
16655;DHT22;8441;51.344;7.022;2023-07-29T08:39:14;21.00;99.90
16655;DHT22;8441;51.344;7.022;2023-07-29T08:41:48;20.90;99.90
16655;DHT22;8441;51.344;7.022;2023-07-29T08:44:21;21.10;99.90
16655;DHT22;8441;51.344;7.022;2023-07-29T08:46:49;21.50;99.90
16655;DHT22;8441;51.344;7.022;2023-07-29T08:49:16;21.70;99.90
16655;DHT22;8441;51.344;7.022;2023-07-29T08:51:47;21.80;99.90
16655;DHT22;8441;51.344;7.022;2023-07-29T08:54:15;21.80;99.90
16655;DHT22;8441;51.344;7.022;2023-07-29T08:56:43;21.60;99.90
16655;DHT22;8441;51.344;7.022;2023-07-29T08:59:10;21.50;99.90
16655;DHT22;8441;51.344;7.022;2023-07-29T09:01:38;21.90;99.90
16655;DHT22;8441;51.344;7.022;2023-07-29T09:04:05;21.80;99.90
16655;DHT22;8441;51.344;7.022;2023-07-29T09:06:32;21.80;99.90
16655;DHT22;8441;51.344;7.022;2023-07-29T09:09:02;22.00;99.90
16655;DHT22;8441;51.344;7.022;2023-07-29T09:11:29;22.00;99.90
16655;DHT22;8441;51.344;7.022;2023-07-29T09:13:57;22.10;99.90
16655;DHT22;8441;51.344;7.022;2023-07-29T09:16:24;22.00;99.90
16655;DHT22;8441;51.344;7.022;2023-07-29T09:18:52;22.20;99.90
16655;DHT22;8441;51.344;7.022;2023-07-29T09:21:23;22.30;99.90
16655;DHT22;8441;51.344;7.022;2023-07-29T09:23:52;22.40;99.90
16655;DHT22;8441;51.344;7.022;2023-07-29T09:26:24;22.60;99.90
16655;DHT22;8441;51.344;7.022;2023-07-29T09:28:53;22.70;99.90
16655;DHT22;8441;51.344;7.022;2023-07-29T09:31:21;23.10;99.90
16655;DHT22;8441;51.344;7.022;2023-07-29T09:33:48;23.20;99.90
16655;DHT22;8441;51.344;7.022;2023-07-29T09:36:15;23.10;99.90
16655;DHT22;8441;51.344;7.022;2023-07-29T09:38:44;22.60;99.90
16655;DHT22;8441;51.344;7.022;2023-07-29T09:41:12;22.10;99.90
16655;DHT22;8441;51.344;7.022;2023-07-29T09:43:42;21.80;99.90
16655;DHT22;8441;51.344;7.022;2023-07-29T09:46:09;21.60;99.90
16655;DHT22;8441;51.344;7.022;2023-07-29T09:48:37;21.40;99.90
16655;DHT22;8441;51.344;7.022;2023-07-29T09:51:11;21.30;99.90
16655;DHT22;8441;51.344;7.022;2023-07-29T09:53:43;21.50;99.90
16655;DHT22;8441;51.344;7.022;2023-07-29T09:56:10;21.40;99.90
16655;DHT22;8441;51.344;7.022;2023-07-29T09:58:39;21.40;99.90
16655;DHT22;8441;51.344;7.022;2023-07-29T10:01:08;21.20;99.90
16655;DHT22;8441;51.344;7.022;2023-07-29T10:03:36;21.20;99.90
16655;DHT22;8441;51.344;7.022;2023-07-29T10:06:04;21.40;99.90
16655;DHT22;8441;51.344;7.022;2023-07-29T10:08:33;21.60;99.90
16655;DHT22;8441;51.344;7.022;2023-07-29T10:11:01;21.90;99.90
16655;DHT22;8441;51.344;7.022;2023-07-29T10:13:29;22.10;99.90
16655;DHT22;8441;51.344;7.022;2023-07-29T10:15:57;21.90;99.90
16655;DHT22;8441;51.344;7.022;2023-07-29T10:18:26;21.90;99.90
16655;DHT22;8441;51.344;7.022;2023-07-29T10:20:54;22.00;99.90
16655;DHT22;8441;51.344;7.022;2023-07-29T10:23:25;22.10;99.90
16655;DHT22;8441;51.344;7.022;2023-07-29T10:25:57;22.10;99.90
16655;DHT22;8441;51.344;7.022;2023-07-29T10:28:26;22.40;99.90
16655;DHT22;8441;51.344;7.022;2023-07-29T10:30:56;22.60;99.90
16655;DHT22;8441;51.344;7.022;2023-07-29T10:33:25;22.70;99.90
16655;DHT22;8441;51.344;7.022;2023-07-29T10:35:53;22.80;99.90
16655;DHT22;8441;51.344;7.022;2023-07-29T10:38:22;23.00;99.90
16655;DHT22;8441;51.344;7.022;2023-07-29T10:40:52;23.20;99.90
16655;DHT22;8441;51.344;7.022;2023-07-29T10:43:25;23.30;99.90
16655;DHT22;8441;51.344;7.022;2023-07-29T10:45:53;23.40;99.90
16655;DHT22;8441;51.344;7.022;2023-07-29T10:48:44;23.30;99.90
16655;DHT22;8441;51.344;7.022;2023-07-29T10:51:26;23.20;99.90
16655;DHT22;8441;51.344;7.022;2023-07-29T10:53:56;23.20;99.90
16655;DHT22;8441;51.344;7.022;2023-07-29T10:56:29;22.90;99.90
16655;DHT22;8441;51.344;7.022;2023-07-29T10:59:01;22.80;99.90
16655;DHT22;8441;51.344;7.022;2023-07-29T11:01:30;22.80;99.90
16655;DHT22;8441;51.344;7.022;2023-07-29T11:04:25;22.60;99.90
16655;DHT22;8441;51.344;7.022;2023-07-29T11:07:21;22.30;99.90
16655;DHT22;8441;51.344;7.022;2023-07-29T11:09:57;22.30;99.90
16655;DHT22;8441;51.344;7.022;2023-07-29T11:12:38;22.50;99.90
16655;DHT22;8441;51.344;7.022;2023-07-29T11:15:16;22.80;99.90
16655;DHT22;8441;51.344;7.022;2023-07-29T11:17:45;23.10;99.90
16655;DHT22;8441;51.344;7.022;2023-07-29T11:20:15;23.40;99.90
16655;DHT22;8441;51.344;7.022;2023-07-29T11:22:42;23.60;99.90
16655;DHT22;8441;51.344;7.022;2023-07-29T11:25:12;23.60;99.90
16655;DHT22;8441;51.344;7.022;2023-07-29T11:27:39;23.50;99.90
16655;DHT22;8441;51.344;7.022;2023-07-29T11:30:07;23.40;99.90
16655;DHT22;8441;51.344;7.022;2023-07-29T11:32:36;23.30;99.90
16655;DHT22;8441;51.344;7.022;2023-07-29T11:35:04;23.00;99.90
16655;DHT22;8441;51.344;7.022;2023-07-29T11:37:34;22.80;99.90
16655;DHT22;8441;51.344;7.022;2023-07-29T11:40:02;22.70;99.90
16655;DHT22;8441;51.344;7.022;2023-07-29T11:42:32;22.70;99.90
16655;DHT22;8441;51.344;7.022;2023-07-29T11:44:59;22.80;99.90
16655;DHT22;8441;51.344;7.022;2023-07-29T11:47:27;23.00;99.90
16655;DHT22;8441;51.344;7.022;2023-07-29T11:49:57;22.90;99.90
16655;DHT22;8441;51.344;7.022;2023-07-29T11:52:25;22.90;99.90
16655;DHT22;8441;51.344;7.022;2023-07-29T11:54:53;22.80;99.90
16655;DHT22;8441;51.344;7.022;2023-07-29T11:57:21;22.60;99.90
16655;DHT22;8441;51.344;7.022;2023-07-29T11:59:48;22.90;99.90
16655;DHT22;8441;51.344;7.022;2023-07-29T12:02:17;23.30;99.90
16655;DHT22;8441;51.344;7.022;2023-07-29T12:04:47;23.30;99.90
16655;DHT22;8441;51.344;7.022;2023-07-29T12:07:16;23.10;99.90
16655;DHT22;8441;51.344;7.022;2023-07-29T12:09:43;22.90;99.90
16655;DHT22;8441;51.344;7.022;2023-07-29T12:12:13;22.90;99.90
16655;DHT22;8441;51.344;7.022;2023-07-29T12:14:44;23.10;99.90
16655;DHT22;8441;51.344;7.022;2023-07-29T12:17:11;23.40;99.90
16655;DHT22;8441;51.344;7.022;2023-07-29T12:19:39;23.70;99.90
16655;DHT22;8441;51.344;7.022;2023-07-29T12:22:09;24.00;99.90
16655;DHT22;8441;51.344;7.022;2023-07-29T12:24:39;24.00;99.90
16655;DHT22;8441;51.344;7.022;2023-07-29T12:27:10;23.90;99.90
16655;DHT22;8441;51.344;7.022;2023-07-29T12:29:43;23.80;99.90
16655;DHT22;8441;51.344;7.022;2023-07-29T12:32:12;23.70;99.90
16655;DHT22;8441;51.344;7.022;2023-07-29T12:34:39;23.90;99.90
16655;DHT22;8441;51.344;7.022;2023-07-29T12:37:07;24.30;99.90
16655;DHT22;8441;51.344;7.022;2023-07-29T12:39:35;24.70;99.90
16655;DHT22;8441;51.344;7.022;2023-07-29T12:42:03;25.00;99.90
16655;DHT22;8441;51.344;7.022;2023-07-29T12:44:32;25.10;99.90
16655;DHT22;8441;51.344;7.022;2023-07-29T12:47:01;25.20;99.90
16655;DHT22;8441;51.344;7.022;2023-07-29T12:49:29;25.30;99.90
16655;DHT22;8441;51.344;7.022;2023-07-29T12:51:57;25.00;99.90
16655;DHT22;8441;51.344;7.022;2023-07-29T12:54:24;24.70;99.90
16655;DHT22;8441;51.344;7.022;2023-07-29T12:56:51;24.60;99.90
16655;DHT22;8441;51.344;7.022;2023-07-29T12:59:18;24.60;99.90
16655;DHT22;8441;51.344;7.022;2023-07-29T13:01:46;24.90;99.90
16655;DHT22;8441;51.344;7.022;2023-07-29T13:04:15;25.00;99.90
16655;DHT22;8441;51.344;7.022;2023-07-29T13:06:42;25.30;99.90
16655;DHT22;8441;51.344;7.022;2023-07-29T13:09:09;25.20;99.90
16655;DHT22;8441;51.344;7.022;2023-07-29T13:11:36;25.30;99.90
16655;DHT22;8441;51.344;7.022;2023-07-29T13:14:03;25.40;99.90
16655;DHT22;8441;51.344;7.022;2023-07-29T13:16:30;25.40;99.90
16655;DHT22;8441;51.344;7.022;2023-07-29T13:18:58;25.40;99.90
16655;DHT22;8441;51.344;7.022;2023-07-29T13:21:27;25.30;99.90
16655;DHT22;8441;51.344;7.022;2023-07-29T13:23:54;25.30;99.90
16655;DHT22;8441;51.344;7.022;2023-07-29T13:26:21;25.50;99.90
16655;DHT22;8441;51.344;7.022;2023-07-29T13:28:48;25.50;99.90
16655;DHT22;8441;51.344;7.022;2023-07-29T13:31:16;25.50;99.90
16655;DHT22;8441;51.344;7.022;2023-07-29T13:33:43;25.20;99.90
16655;DHT22;8441;51.344;7.022;2023-07-29T13:36:10;24.70;99.90
16655;DHT22;8441;51.344;7.022;2023-07-29T13:38:39;24.40;99.90
16655;DHT22;8441;51.344;7.022;2023-07-29T13:41:06;24.50;99.90
16655;DHT22;8441;51.344;7.022;2023-07-29T13:43:33;24.50;99.90
16655;DHT22;8441;51.344;7.022;2023-07-29T13:46:00;24.40;99.90
16655;DHT22;8441;51.344;7.022;2023-07-29T13:48:27;24.20;99.90
16655;DHT22;8441;51.344;7.022;2023-07-29T13:50:54;23.80;99.90
16655;DHT22;8441;51.344;7.022;2023-07-29T13:53:22;23.40;99.90
16655;DHT22;8441;51.344;7.022;2023-07-29T13:55:50;23.00;99.90
16655;DHT22;8441;51.344;7.022;2023-07-29T13:58:17;22.60;99.90
16655;DHT22;8441;51.344;7.022;2023-07-29T14:00:44;22.40;99.90
16655;DHT22;8441;51.344;7.022;2023-07-29T14:03:12;22.00;99.90
16655;DHT22;8441;51.344;7.022;2023-07-29T14:05:39;21.90;99.90
16655;DHT22;8441;51.344;7.022;2023-07-29T14:08:06;21.70;99.90
16655;DHT22;8441;51.344;7.022;2023-07-29T14:10:33;21.70;99.90
16655;DHT22;8441;51.344;7.022;2023-07-29T14:13:02;21.60;99.90
16655;DHT22;8441;51.344;7.022;2023-07-29T14:15:29;21.50;99.90
16655;DHT22;8441;51.344;7.022;2023-07-29T14:17:58;21.60;99.90
16655;DHT22;8441;51.344;7.022;2023-07-29T14:20:25;21.70;99.90
16655;DHT22;8441;51.344;7.022;2023-07-29T14:22:52;21.90;99.90
16655;DHT22;8441;51.344;7.022;2023-07-29T14:25:19;22.30;99.90
16655;DHT22;8441;51.344;7.022;2023-07-29T14:27:47;22.80;99.90
16655;DHT22;8441;51.344;7.022;2023-07-29T14:30:15;23.20;99.90
16655;DHT22;8441;51.344;7.022;2023-07-29T14:32:43;23.70;99.90
16655;DHT22;8441;51.344;7.022;2023-07-29T14:35:10;23.90;99.90
16655;DHT22;8441;51.344;7.022;2023-07-29T14:37:38;23.90;99.90
16655;DHT22;8441;51.344;7.022;2023-07-29T14:40:07;23.90;99.90
16655;DHT22;8441;51.344;7.022;2023-07-29T14:42:34;23.80;99.90
16655;DHT22;8441;51.344;7.022;2023-07-29T14:45:01;23.40;99.90
16655;DHT22;8441;51.344;7.022;2023-07-29T14:47:29;23.20;99.90
16655;DHT22;8441;51.344;7.022;2023-07-29T14:50:00;23.50;99.90
16655;DHT22;8441;51.344;7.022;2023-07-29T14:52:27;23.70;99.90
16655;DHT22;8441;51.344;7.022;2023-07-29T14:54:55;23.90;99.90
16655;DHT22;8441;51.344;7.022;2023-07-29T14:57:22;23.60;99.90
16655;DHT22;8441;51.344;7.022;2023-07-29T14:59:49;23.40;99.90
16655;DHT22;8441;51.344;7.022;2023-07-29T15:02:16;23.20;99.90
16655;DHT22;8441;51.344;7.022;2023-07-29T15:04:45;22.80;99.90
16655;DHT22;8441;51.344;7.022;2023-07-29T15:07:12;22.60;99.90
16655;DHT22;8441;51.344;7.022;2023-07-29T15:09:40;22.30;99.90
16655;DHT22;8441;51.344;7.022;2023-07-29T15:12:08;22.20;99.90
16655;DHT22;8441;51.344;7.022;2023-07-29T15:14:35;22.20;99.90
16655;DHT22;8441;51.344;7.022;2023-07-29T15:17:03;22.30;99.90
16655;DHT22;8441;51.344;7.022;2023-07-29T15:19:30;22.30;99.90
16655;DHT22;8441;51.344;7.022;2023-07-29T15:21:59;22.50;99.90
16655;DHT22;8441;51.344;7.022;2023-07-29T15:24:26;22.70;99.90
16655;DHT22;8441;51.344;7.022;2023-07-29T15:26:53;22.90;99.90
16655;DHT22;8441;51.344;7.022;2023-07-29T15:29:20;23.20;99.90
16655;DHT22;8441;51.344;7.022;2023-07-29T15:31:47;23.40;99.90
16655;DHT22;8441;51.344;7.022;2023-07-29T15:34:14;23.50;99.90
16655;DHT22;8441;51.344;7.022;2023-07-29T15:36:41;23.70;99.90
16655;DHT22;8441;51.344;7.022;2023-07-29T15:39:10;23.90;99.90
16655;DHT22;8441;51.344;7.022;2023-07-29T15:41:37;24.20;99.90
16655;DHT22;8441;51.344;7.022;2023-07-29T15:44:04;24.40;99.90
16655;DHT22;8441;51.344;7.022;2023-07-29T15:46:32;24.50;99.90
16655;DHT22;8441;51.344;7.022;2023-07-29T15:48:59;24.60;99.90
16655;DHT22;8441;51.344;7.022;2023-07-29T15:51:26;24.50;99.90
16655;DHT22;8441;51.344;7.022;2023-07-29T15:53:53;24.30;99.90
16655;DHT22;8441;51.344;7.022;2023-07-29T15:56:22;24.10;99.90
16655;DHT22;8441;51.344;7.022;2023-07-29T15:58:49;23.90;99.90
16655;DHT22;8441;51.344;7.022;2023-07-29T16:01:17;23.80;99.90
16655;DHT22;8441;51.344;7.022;2023-07-29T16:03:44;23.80;99.90
16655;DHT22;8441;51.344;7.022;2023-07-29T16:06:11;23.90;99.90
16655;DHT22;8441;51.344;7.022;2023-07-29T16:08:38;23.90;99.90
16655;DHT22;8441;51.344;7.022;2023-07-29T16:11:05;23.90;99.90
16655;DHT22;8441;51.344;7.022;2023-07-29T16:13:34;24.00;99.90
16655;DHT22;8441;51.344;7.022;2023-07-29T16:16:01;24.10;99.90
16655;DHT22;8441;51.344;7.022;2023-07-29T16:18:29;24.00;99.90
16655;DHT22;8441;51.344;7.022;2023-07-29T16:20:56;23.90;99.90
16655;DHT22;8441;51.344;7.022;2023-07-29T16:23:27;23.80;99.90
16655;DHT22;8441;51.344;7.022;2023-07-29T16:25:55;23.70;99.90
16655;DHT22;8441;51.344;7.022;2023-07-29T16:28:22;23.50;99.90
16655;DHT22;8441;51.344;7.022;2023-07-29T16:30:50;23.60;99.90
16655;DHT22;8441;51.344;7.022;2023-07-29T16:33:18;23.70;99.90
16655;DHT22;8441;51.344;7.022;2023-07-29T16:35:45;23.60;99.90
16655;DHT22;8441;51.344;7.022;2023-07-29T16:38:12;23.50;99.90
16655;DHT22;8441;51.344;7.022;2023-07-29T16:40:40;23.50;99.90
16655;DHT22;8441;51.344;7.022;2023-07-29T16:43:07;23.90;99.90
16655;DHT22;8441;51.344;7.022;2023-07-29T16:45:34;24.00;99.90
16655;DHT22;8441;51.344;7.022;2023-07-29T16:48:03;23.90;99.90
16655;DHT22;8441;51.344;7.022;2023-07-29T16:50:30;24.00;99.90
16655;DHT22;8441;51.344;7.022;2023-07-29T16:52:58;23.90;99.90
16655;DHT22;8441;51.344;7.022;2023-07-29T16:55:25;23.70;99.90
16655;DHT22;8441;51.344;7.022;2023-07-29T16:57:52;23.50;99.90
16655;DHT22;8441;51.344;7.022;2023-07-29T17:00:19;23.30;99.90
16655;DHT22;8441;51.344;7.022;2023-07-29T17:02:47;23.10;99.90
16655;DHT22;8441;51.344;7.022;2023-07-29T17:05:16;23.00;99.90
16655;DHT22;8441;51.344;7.022;2023-07-29T17:07:43;22.90;99.90
16655;DHT22;8441;51.344;7.022;2023-07-29T17:10:10;22.70;99.90
16655;DHT22;8441;51.344;7.022;2023-07-29T17:12:37;22.60;99.90
16655;DHT22;8441;51.344;7.022;2023-07-29T17:15:05;22.30;99.90
16655;DHT22;8441;51.344;7.022;2023-07-29T17:17:34;22.00;99.90
16655;DHT22;8441;51.344;7.022;2023-07-29T17:20:01;21.80;99.90
16655;DHT22;8441;51.344;7.022;2023-07-29T17:22:31;21.70;99.90
16655;DHT22;8441;51.344;7.022;2023-07-29T17:24:59;21.60;99.90
16655;DHT22;8441;51.344;7.022;2023-07-29T17:27:26;21.60;99.90
16655;DHT22;8441;51.344;7.022;2023-07-29T17:29:53;21.60;99.90
16655;DHT22;8441;51.344;7.022;2023-07-29T17:32:21;21.50;99.90
16655;DHT22;8441;51.344;7.022;2023-07-29T17:34:48;21.50;99.90
16655;DHT22;8441;51.344;7.022;2023-07-29T17:37:15;21.40;99.90
16655;DHT22;8441;51.344;7.022;2023-07-29T17:39:43;21.30;99.90
16655;DHT22;8441;51.344;7.022;2023-07-29T17:42:10;21.10;99.90
16655;DHT22;8441;51.344;7.022;2023-07-29T17:44:38;21.10;99.90
16655;DHT22;8441;51.344;7.022;2023-07-29T17:47:05;21.10;99.90
16655;DHT22;8441;51.344;7.022;2023-07-29T17:49:32;21.00;99.90
16655;DHT22;8441;51.344;7.022;2023-07-29T17:52:00;21.10;99.90
16655;DHT22;8441;51.344;7.022;2023-07-29T17:54:27;21.30;99.90
16655;DHT22;8441;51.344;7.022;2023-07-29T17:56:55;21.30;99.90
16655;DHT22;8441;51.344;7.022;2023-07-29T17:59:22;21.30;99.90
16655;DHT22;8441;51.344;7.022;2023-07-29T18:01:50;21.30;99.90
16655;DHT22;8441;51.344;7.022;2023-07-29T18:04:17;21.20;99.90
16655;DHT22;8441;51.344;7.022;2023-07-29T18:06:44;21.20;99.90
16655;DHT22;8441;51.344;7.022;2023-07-29T18:09:11;21.10;99.90
16655;DHT22;8441;51.344;7.022;2023-07-29T18:11:40;21.10;99.90
16655;DHT22;8441;51.344;7.022;2023-07-29T18:14:09;21.00;99.90
16655;DHT22;8441;51.344;7.022;2023-07-29T18:16:36;21.10;99.90
16655;DHT22;8441;51.344;7.022;2023-07-29T18:19:06;21.20;99.90
16655;DHT22;8441;51.344;7.022;2023-07-29T18:21:33;21.20;99.90
16655;DHT22;8441;51.344;7.022;2023-07-29T18:24:00;21.10;99.90
16655;DHT22;8441;51.344;7.022;2023-07-29T18:26:27;20.80;99.90
16655;DHT22;8441;51.344;7.022;2023-07-29T18:28:55;20.60;99.90
16655;DHT22;8441;51.344;7.022;2023-07-29T18:31:23;20.40;99.90
16655;DHT22;8441;51.344;7.022;2023-07-29T18:33:50;20.20;99.90
16655;DHT22;8441;51.344;7.022;2023-07-29T18:36:18;20.00;99.90
16655;DHT22;8441;51.344;7.022;2023-07-29T18:38:45;19.70;99.90
16655;DHT22;8441;51.344;7.022;2023-07-29T18:41:12;19.70;99.90